Time;durP1;ratioP1;P1;durP2;ratioP2;P2;SDS_P1;SDS_P2;PMS_P1;PMS_P2;Temp;Humidity;BMP_temperature;BMP_pressure;BME280_temperature;BME280_humidity;BME280_pressure;Samples;Min_cycle;Max_cycle;Signal;HPM_P1;HPM_P2
2022/01/18 00:05:25;;;;;;;;;;;;;;;;;;;;;
2022/01/18 00:14:54;;;;;;;;;;;;;;;;;;;;;
2022/01/18 00:17:40;;;;;;;;;;;1.70;99.90;;;;;;6025986;23;19920;-93
2022/01/18 00:23:56;;;;;;;;;;;;;;;;;;;;;
2022/01/18 00:26:46;;;;;;;;;;;1.30;99.90;;;;;;6029098;23;20749;-93
2022/01/18 00:29:24;;;;;;;;;;;1.30;99.90;;;;;;6012932;23;19932;-93
2022/01/18 00:32:54;;;;;;;;;;;1.30;99.90;;;;;;6012562;23;19913;-92
2022/01/18 00:35:03;;;;;;;;;;;1.30;99.90;;;;;;6098026;23;19996;-91
2022/01/18 00:37:40;;;;;;;;;;;1.30;99.90;;;;;;6096794;23;20326;-91
2022/01/18 00:40:06;;;;;;;;;;;1.40;99.90;;;;;;6087565;23;20304;-91
2022/01/18 00:42:40;;;;;;;;;;;1.20;99.90;;;;;;6055038;23;19909;-92
2022/01/18 00:45:17;;;;;;;;;;;1.20;99.90;;;;;;6035595;23;19965;-92
2022/01/18 00:47:48;;;;;;;;;;;1.30;99.90;;;;;;6050229;23;19909;-93
2022/01/18 00:50:18;;;;;;;;;;;1.20;99.90;;;;;;6067791;23;19964;-92
2022/01/18 00:52:50;;;;;;;;;;;1.20;99.90;;;;;;6052659;23;19959;-91
2022/01/18 00:56:03;;;;;;;;;;;;;;;;;;;;;
2022/01/18 00:58:29;;;;;;;;;;;1.20;99.90;;;;;;6075308;23;20715;-92
2022/01/18 01:01:15;;;;;;;;;;;1.30;99.90;;;;;;6092351;23;19988;-92
2022/01/18 01:03:51;;;;;;;;;;;1.50;99.90;;;;;;6033922;23;20226;-93
2022/01/18 01:06:48;;;;;;;;;;;1.70;99.90;;;;;;6035868;23;19913;-93
2022/01/18 01:09:20;;;;;;;;;;;1.60;99.90;;;;;;6048669;23;19909;-94
2022/01/18 01:12:21;;;;;;;;;;;1.70;99.90;;;;;;6048651;23;19909;-93
2022/01/18 01:18:13;;;;;;;;;;;1.60;99.90;;;;;;6077680;23;19920;-94
2022/01/18 01:45:16;;;;;;;;;;;;;;;;;;;;;
2022/01/18 01:48:08;;;;;;;;;;;1.40;99.90;;;;;;5942278;23;20589;-95
2022/01/18 01:51:05;;;;;;;;;;;1.50;99.90;;;;;;5888997;23;20192;-94
2022/01/18 01:56:29;;;;;;;;;;;1.00;99.90;;;;;;5866425;24;19966;-93
2022/01/18 01:59:15;;;;;;;;;;;0.90;99.90;;;;;;5928843;24;19998;-92
2022/01/18 02:02:08;;;;;;;;;;;0.90;99.90;;;;;;5905448;23;19915;-92
2022/01/18 02:04:59;;;;;;;;;;;;;;;;;;;;;
2022/01/18 02:08:11;;;;;;;;;;;1.40;99.90;;;;;;5904249;23;21699;-93
2022/01/18 02:10:51;;;;;;;;;;;1.40;99.90;;;;;;5887594;23;19922;-93
2022/01/18 02:22:02;;;;;;;;;;;1.20;99.90;;;;;;5899534;23;19990;-93
2022/01/18 02:25:03;;;;;;;;;;;;;;;;;;;;;
2022/01/18 02:34:09;;;;;;;;;;;1.20;99.90;;;;;;5936373;23;19989;-94
2022/01/18 02:37:14;;;;;;;;;;;;;;;;;;;;;
2022/01/18 02:40:05;;;;;;;;;;;1.30;99.90;;;;;;5945767;23;19925;-94
2022/01/18 02:52:07;;;;;;;;;;;1.40;99.90;;;;;;5826788;24;19994;-94
2022/01/18 03:04:32;;;;;;;;;;;;;;;;;;;;;
2022/01/18 03:07:33;;;;;;;;;;;1.20;99.90;;;;;;5802424;24;20589;-93
2022/01/18 03:13:23;;;;;;;;;;;1.20;99.90;;;;;;5845773;24;19911;-93
2022/01/18 03:15:56;;;;;;;;;;;1.00;99.90;;;;;;5831207;24;19923;-92
2022/01/18 03:18:47;;;;;;;;;;;1.10;99.90;;;;;;5900673;24;20082;-92
2022/01/18 03:21:33;;;;;;;;;;;1.20;99.90;;;;;;5877112;24;19921;-93
2022/01/18 03:30:30;;;;;;;;;;;0.90;99.90;;;;;;5944004;23;19925;-93
2022/01/18 03:36:39;;;;;;;;;;;;;;;;;;;;;
2022/01/18 03:39:21;;;;;;;;;;;0.70;99.90;;;;;;6061329;23;19957;-93
2022/01/18 03:42:31;;;;;;;;;;;0.80;99.90;;;;;;5993681;23;19910;-93
2022/01/18 03:44:56;;;;;;;;;;;0.80;99.90;;;;;;6066312;23;19913;-92
2022/01/18 03:47:39;;;;;;;;;;;0.90;99.90;;;;;;6026447;23;19917;-94
2022/01/18 03:50:09;;;;;;;;;;;1.00;99.90;;;;;;6027882;23;20044;-91
2022/01/18 03:52:47;;;;;;;;;;;1.00;99.90;;;;;;6018337;23;19920;-93
2022/01/18 03:55:17;;;;;;;;;;;1.10;99.90;;;;;;6037198;23;19968;-93
2022/01/18 04:01:07;;;;;;;;;;;;;;;;;;;;;
2022/01/18 04:07:12;;;;;;;;;;;0.90;99.90;;;;;;6071589;23;20464;-94
2022/01/18 04:12:51;;;;;;;;;;;0.70;99.90;;;;;;6056618;23;19914;-93
2022/01/18 04:15:43;;;;;;;;;;;0.40;99.90;;;;;;6054746;23;19909;-94
2022/01/18 04:26:57;;;;;;;;;;;1.20;99.90;;;;;;6083438;23;19920;-93
2022/01/18 04:29:25;;;;;;;;;;;1.20;99.90;;;;;;6070635;23;20298;-91
2022/01/18 04:31:55;;;;;;;;;;;1.30;99.90;;;;;;6086073;23;19935;-91
2022/01/18 04:34:28;;;;;;;;;;;1.40;99.90;;;;;;6077743;23;19917;-91
2022/01/18 04:36:54;;;;;;;;;;;1.40;99.90;;;;;;6100371;23;19921;-86
2022/01/18 04:39:19;;;;;;;;;;;1.50;99.90;;;;;;6114555;23;19913;-90
2022/01/18 04:41:46;;;;;;;;;;;1.50;99.90;;;;;;6113521;23;19909;-87
2022/01/18 04:49:48;;;;;;;;;;;1.60;99.90;;;;;;6117006;23;19928;-88
2022/01/18 04:52:13;;;;;;;;;;;1.60;99.90;;;;;;6117014;23;19913;-88
2022/01/18 04:54:42;;;;;;;;;;;1.50;99.90;;;;;;6114913;23;19921;-88
2022/01/18 04:59:34;;;;;;;;;;;1.60;99.90;;;;;;6117101;23;20288;-88
2022/01/18 05:01:59;;;;;;;;;;;1.50;99.90;;;;;;6116046;23;19988;-88
2022/01/18 05:04:25;;;;;;;;;;;1.60;99.90;;;;;;6120906;23;19943;-88
2022/01/18 05:06:52;;;;;;;;;;;1.80;99.90;;;;;;6093529;23;20325;-88
2022/01/18 05:09:18;;;;;;;;;;;1.70;99.90;;;;;;6119015;23;19909;-88
2022/01/18 05:12:05;;;;;;;;;;;1.80;99.90;;;;;;6120632;23;19912;-90
2022/01/18 05:14:34;;;;;;;;;;;1.60;99.90;;;;;;6120226;23;19912;-88
2022/01/18 05:18:10;;;;;;;;;;;1.60;99.90;;;;;;6120325;23;19927;-91
2022/01/18 05:25:05;;;;;;;;;;;1.60;99.90;;;;;;6145746;23;20345;-92
2022/01/18 05:27:30;;;;;;;;;;;1.50;99.90;;;;;;6145378;23;19933;-90
2022/01/18 05:29:56;;;;;;;;;;;1.40;99.90;;;;;;6119336;23;19913;-91
2022/01/18 05:32:21;;;;;;;;;;;1.40;99.90;;;;;;6118381;23;20226;-90
2022/01/18 05:34:49;;;;;;;;;;;1.50;99.90;;;;;;6119141;23;19932;-90
2022/01/18 05:37:15;;;;;;;;;;;1.60;99.90;;;;;;6119656;23;20602;-88
2022/01/18 05:39:41;;;;;;;;;;;1.50;99.90;;;;;;6145066;23;19936;-91
2022/01/18 05:42:06;;;;;;;;;;;1.50;99.90;;;;;;6143856;23;19963;-87
2022/01/18 05:44:34;;;;;;;;;;;1.30;99.90;;;;;;6118379;23;19915;-89
2022/01/18 05:46:59;;;;;;;;;;;1.20;99.90;;;;;;6118348;23;19957;-89
2022/01/18 05:49:25;;;;;;;;;;;1.10;99.90;;;;;;6144881;23;20348;-88
2022/01/18 05:51:50;;;;;;;;;;;1.10;99.90;;;;;;6145056;23;19916;-86
2022/01/18 05:54:16;;;;;;;;;;;1.20;99.90;;;;;;6108054;23;19909;-93
2022/01/18 05:56:42;;;;;;;;;;;1.10;99.90;;;;;;6144162;23;19920;-92
2022/01/18 05:59:10;;;;;;;;;;;1.00;99.90;;;;;;6115783;23;19940;-92
2022/01/18 06:01:47;;;;;;;;;;;0.90;99.90;;;;;;6085359;23;19926;-94
2022/01/18 06:06:50;;;;;;;;;;;0.90;99.90;;;;;;6077258;23;19923;-94
2022/01/18 06:07:09;;;;;;;;;;;;;;;;;;;;;
2022/01/18 06:10:16;;;;;;;;;;;0.90;99.90;;;;;;6070932;23;19916;-92
2022/01/18 06:13:22;;;;;;;;;;;0.70;99.90;;;;;;5989727;23;20306;-95
2022/01/18 06:16:07;;;;;;;;;;;0.60;99.90;;;;;;6087772;23;19912;-94
2022/01/18 06:18:36;;;;;;;;;;;0.60;99.90;;;;;;6040863;23;19921;-93
2022/01/18 06:21:19;;;;;;;;;;;0.60;99.90;;;;;;6054045;23;19987;-94
2022/01/18 06:24:07;;;;;;;;;;;0.60;99.90;;;;;;6149019;23;19896;-94
2022/01/18 06:26:34;;;;;;;;;;;0.60;99.90;;;;;;6146403;23;19966;-92
2022/01/18 06:29:00;;;;;;;;;;;0.70;99.90;;;;;;6118930;23;20413;-93
2022/01/18 06:31:27;;;;;;;;;;;0.80;99.90;;;;;;6117653;23;19909;-92
2022/01/18 06:34:03;;;;;;;;;;;0.90;99.90;;;;;;6125714;23;19960;-94
2022/01/18 06:36:29;;;;;;;;;;;0.90;99.90;;;;;;6115338;23;19920;-90
2022/01/18 06:38:55;;;;;;;;;;;0.90;99.90;;;;;;6144984;23;19913;-88
2022/01/18 06:41:20;;;;;;;;;;;1.10;99.90;;;;;;6119183;23;19967;-90
2022/01/18 06:43:46;;;;;;;;;;;1.10;99.90;;;;;;6143503;23;19963;-85
2022/01/18 06:46:11;;;;;;;;;;;1.20;99.90;;;;;;6117361;23;19988;-85
2022/01/18 06:48:37;;;;;;;;;;;1.20;99.90;;;;;;6117185;23;19975;-85
2022/01/18 06:51:02;;;;;;;;;;;1.30;99.90;;;;;;6117471;23;20004;-86
2022/01/18 07:10:14;;;;;;;;;;;1.10;99.90;;;;;;5850823;24;19946;-93
2022/01/18 07:13:14;;;;;;;;;;;1.10;99.90;;;;;;5772060;24;19920;-93
2022/01/18 07:16:01;;;;;;;;;;;;;;;;;;;;;
2022/01/18 07:22:05;;;;;;;;;;;1.30;99.90;;;;;;5796442;24;19975;-91
2022/01/18 07:28:25;;;;;;;;;;;;;;;;;;;;;
2022/01/18 07:34:33;;;;;;;;;;;1.60;99.90;;;;;;5800416;24;19923;-91
2022/01/18 07:37:10;;;;;;;;;;;1.70;99.90;;;;;;5813851;24;20065;-91
2022/01/18 07:39:42;;;;;;;;;;;1.60;99.90;;;;;;5826980;24;20250;-93
2022/01/18 07:42:34;;;;;;;;;;;1.70;99.90;;;;;;5834316;24;20010;-92
2022/01/18 07:48:23;;;;;;;;;;;1.70;99.90;;;;;;6009964;23;20557;-94
2022/01/18 07:51:02;;;;;;;;;;;1.70;99.90;;;;;;5960153;23;20835;-94
2022/01/18 07:53:55;;;;;;;;;;;1.80;99.90;;;;;;5989171;23;20465;-92
2022/01/18 07:56:39;;;;;;;;;;;;;;;;;;;;;
2022/01/18 08:02:37;;;;;;;;;;;;;;;;;;;;;
2022/01/18 08:18:07;;;;;;;;;;;2.10;99.90;;;;;;6055316;23;20015;-92
2022/01/18 08:20:45;;;;;;;;;;;2.10;99.90;;;;;;5995578;23;20615;-91
2022/01/18 08:26:27;;;;;;;;;;;2.20;99.90;;;;;;6005219;23;19928;-91
2022/01/18 08:29:15;;;;;;;;;;;2.30;99.90;;;;;;5996980;23;20330;-92
2022/01/18 08:35:32;;;;;;;;;;;2.40;99.90;;;;;;5887658;23;20264;-91
2022/01/18 08:53:51;;;;;;;;;;;2.90;99.90;;;;;;6120775;23;19928;-91
2022/01/18 08:56:56;;;;;;;;;;;2.90;99.90;;;;;;6069315;23;19909;-91
2022/01/18 08:59:59;;;;;;;;;;;;;;;;;;;;;
2022/01/18 09:02:54;;;;;;;;;;;3.10;99.90;;;;;;6069827;23;20243;-92
2022/01/18 09:05:48;;;;;;;;;;;3.20;99.90;;;;;;6094365;23;19943;-91
2022/01/18 09:11:49;;;;;;;;;;;;;;;;;;;;;
2022/01/18 09:18:11;;;;;;;;;;;3.50;99.90;;;;;;5928713;23;19918;-94
2022/01/18 09:21:02;;;;;;;;;;;3.50;99.90;;;;;;5935597;23;19959;-93
2022/01/18 09:23:43;;;;;;;;;;;3.50;99.90;;;;;;5922522;23;19978;-93
2022/01/18 09:26:37;;;;;;;;;;;3.60;99.90;;;;;;5946773;23;19925;-92
2022/01/18 09:29:10;;;;;;;;;;;3.60;99.90;;;;;;5915619;23;19917;-92
2022/01/18 09:32:22;;;;;;;;;;;;;;;;;;;;;
2022/01/18 12:06:00;;;;;;;;;;;6.00;99.90;;;;;;6065908;23;19923;-93
2022/01/18 12:12:09;;;;;;;;;;;6.00;99.90;;;;;;6088018;23;19913;-93
2022/01/18 12:14:35;;;;;;;;;;;5.90;99.90;;;;;;5996558;23;19914;-93
2022/01/18 12:17:15;;;;;;;;;;;5.90;99.90;;;;;;5995371;23;20263;-93
2022/01/18 12:23:12;;;;;;;;;;;5.80;99.90;;;;;;5923906;23;20672;-92
2022/01/18 12:48:43;;;;;;;;;;;;;;;;;;;;;
2022/01/18 13:26:01;;;;;;;;;;;5.80;99.90;;;;;;5914577;24;20398;-94
2022/01/18 13:32:08;;;;;;;;;;;;;;;;;;;;;
2022/01/18 14:22:20;;;;;;;;;;;5.40;99.90;;;;;;6176168;23;20006;-87
2022/01/18 14:24:47;;;;;;;;;;;5.50;99.90;;;;;;6176747;23;20252;-91
2022/01/18 14:27:15;;;;;;;;;;;5.40;99.90;;;;;;6175176;23;19913;-87
2022/01/18 14:29:40;;;;;;;;;;;5.40;99.90;;;;;;6148863;23;20344;-89
2022/01/18 14:32:06;;;;;;;;;;;5.40;99.90;;;;;;6173241;23;21175;-90
2022/01/18 14:34:31;;;;;;;;;;;5.40;99.90;;;;;;6148464;23;19909;-89
2022/01/18 14:36:57;;;;;;;;;;;5.40;99.90;;;;;;6146958;23;20209;-90
2022/01/18 14:39:22;;;;;;;;;;;5.40;99.90;;;;;;6172897;23;20498;-87
2022/01/18 14:41:55;;;;;;;;;;;5.40;99.90;;;;;;6165435;23;19917;-87
2022/01/18 14:44:35;;;;;;;;;;;5.40;99.90;;;;;;6178043;23;19916;-88
2022/01/18 14:49:45;;;;;;;;;;;5.40;99.90;;;;;;6204656;23;19914;-89
2022/01/18 14:52:10;;;;;;;;;;;5.40;99.90;;;;;;6176910;23;19915;-90
2022/01/18 14:54:36;;;;;;;;;;;5.40;99.90;;;;;;6178160;23;19908;-89
2022/01/18 14:57:01;;;;;;;;;;;5.40;99.90;;;;;;6176912;23;20018;-89
2022/01/18 14:59:27;;;;;;;;;;;5.40;99.90;;;;;;6178582;23;19918;-90
2022/01/18 15:01:52;;;;;;;;;;;5.30;99.90;;;;;;6176699;23;20329;-89
2022/01/18 15:04:18;;;;;;;;;;;5.40;99.90;;;;;;6205127;23;20321;-89
2022/01/18 15:06:46;;;;;;;;;;;5.40;99.90;;;;;;6177105;23;19912;-90
2022/01/18 15:09:12;;;;;;;;;;;5.30;99.90;;;;;;6178354;23;19919;-89
2022/01/18 15:11:37;;;;;;;;;;;5.40;99.90;;;;;;6176486;23;20467;-90
2022/01/18 15:14:04;;;;;;;;;;;5.40;99.90;;;;;;6139558;23;20300;-90
2022/01/18 15:16:33;;;;;;;;;;;5.30;99.90;;;;;;6177181;23;19969;-89
2022/01/18 15:18:58;;;;;;;;;;;5.30;99.90;;;;;;6177290;23;19974;-90
2022/01/18 15:21:25;;;;;;;;;;;5.30;99.90;;;;;;6177638;23;19916;-88
2022/01/18 15:23:50;;;;;;;;;;;5.30;99.90;;;;;;6173278;23;20424;-89
2022/01/18 15:26:16;;;;;;;;;;;5.30;99.90;;;;;;6171945;23;19935;-90
2022/01/18 15:28:42;;;;;;;;;;;5.30;99.90;;;;;;6145867;23;19919;-89
2022/01/18 15:31:07;;;;;;;;;;;5.40;99.90;;;;;;6150134;23;19912;-90
2022/01/18 15:33:33;;;;;;;;;;;5.30;99.90;;;;;;6161713;23;19976;-90
2022/01/18 15:35:59;;;;;;;;;;;5.30;99.90;;;;;;6172937;23;19915;-90
2022/01/18 15:39:49;;;;;;;;;;;;;;;;;;;;;
2022/01/18 15:57:08;;;;;;;;;;;;;;;;;;;;;
2022/01/18 16:06:45;;;;;;;;;;;5.30;99.90;;;;;;6137546;23;19932;-91
2022/01/18 16:09:16;;;;;;;;;;;5.30;99.90;;;;;;6180919;23;19932;-93
2022/01/18 16:11:47;;;;;;;;;;;5.30;99.90;;;;;;6173450;23;19978;-92
2022/01/18 16:14:18;;;;;;;;;;;5.30;99.90;;;;;;6153699;23;20326;-91
2022/01/18 16:20:30;;;;;;;;;;;5.30;99.90;;;;;;5992155;23;19955;-93
2022/01/18 16:22:58;;;;;;;;;;;5.30;99.90;;;;;;5969650;23;19925;-93
2022/01/18 16:28:32;;;;;;;;;;;5.30;99.90;;;;;;6112970;23;20297;-95
2022/01/18 16:31:06;;;;;;;;;;;5.30;99.90;;;;;;6100007;23;19974;-93
2022/01/18 16:33:56;;;;;;;;;;;5.30;99.90;;;;;;6124821;23;19908;-94
2022/01/18 16:36:37;;;;;;;;;;;5.30;99.90;;;;;;6143712;23;20214;-95
2022/01/18 16:42:34;;;;;;;;;;;5.30;99.90;;;;;;6020492;23;20343;-94
2022/01/18 16:45:19;;;;;;;;;;;5.20;99.90;;;;;;6163616;23;20302;-94
2022/01/18 16:54:26;;;;;;;;;;;5.20;99.90;;;;;;6140447;23;20004;-92
2022/01/18 17:03:34;;;;;;;;;;;;;;;;;;;;;
2022/01/18 17:06:39;;;;;;;;;;;5.10;99.90;;;;;;6124889;23;19941;-93
2022/01/18 17:09:42;;;;;;;;;;;;;;;;;;;;;
2022/01/18 17:12:11;;;;;;;;;;;5.10;99.90;;;;;;6107879;23;20507;-94
2022/01/18 17:14:57;;;;;;;;;;;5.10;99.90;;;;;;6025383;23;20385;-93
2022/01/18 17:17:32;;;;;;;;;;;;;;;;;;;;;
2022/01/18 17:20:12;;;;;;;;;;;5.10;99.90;;;;;;6147076;23;20073;-91
2022/01/18 17:23:04;;;;;;;;;;;5.10;99.90;;;;;;6028998;23;19963;-95
2022/01/18 17:25:38;;;;;;;;;;;5.20;99.90;;;;;;6105866;23;19968;-94
2022/01/18 17:28:20;;;;;;;;;;;;;;;;;;;;;
2022/01/18 17:30:49;;;;;;;;;;;5.20;99.90;;;;;;6141699;23;20792;-92
2022/01/18 17:33:35;;;;;;;;;;;5.20;99.90;;;;;;6111382;23;20523;-92
2022/01/18 17:36:38;;;;;;;;;;;;;;;;;;;;;
2022/01/18 17:39:11;;;;;;;;;;;5.20;99.90;;;;;;6112339;23;19928;-92
2022/01/18 17:41:37;;;;;;;;;;;5.10;99.90;;;;;;6117396;23;20339;-91
2022/01/18 17:44:09;;;;;;;;;;;5.10;99.90;;;;;;6117665;23;19912;-92
2022/01/18 17:46:49;;;;;;;;;;;5.10;99.90;;;;;;6098160;23;19923;-93
2022/01/18 17:49:31;;;;;;;;;;;5.10;99.90;;;;;;6137896;23;20328;-93
2022/01/18 17:52:43;;;;;;;;;;;5.10;99.90;;;;;;6109303;23;19916;-91
2022/01/18 17:55:19;;;;;;;;;;;;;;;;;;;;;
2022/01/18 18:49:51;;;;;;;;;;;5.00;99.90;;;;;;6117851;23;19919;-93
2022/01/18 18:52:24;;;;;;;;;;;5.00;99.90;;;;;;6088203;23;19979;-92
2022/01/18 18:54:53;;;;;;;;;;;5.00;99.90;;;;;;6121870;23;19913;-93
2022/01/18 18:57:29;;;;;;;;;;;5.00;99.90;;;;;;6104080;23;19912;-92
2022/01/18 19:09:02;;;;;;;;;;;4.90;99.90;;;;;;6081596;23;20326;-89
2022/01/18 19:11:31;;;;;;;;;;;4.90;99.90;;;;;;6086577;23;20245;-92
2022/01/18 19:20:34;;;;;;;;;;;4.90;99.90;;;;;;6052032;23;19924;-90
2022/01/18 19:23:23;;;;;;;;;;;4.90;99.90;;;;;;5975732;23;19917;-90
2022/01/18 19:26:30;;;;;;;;;;;4.90;99.90;;;;;;5993101;23;19945;-90
2022/01/18 19:29:19;;;;;;;;;;;4.90;99.90;;;;;;6019381;23;19982;-89
2022/01/18 19:35:51;;;;;;;;;;;;;;;;;;;;;
2022/01/18 19:41:47;;;;;;;;;;;;;;;;;;;;;
2022/01/18 19:47:28;;;;;;;;;;;5.00;99.90;;;;;;6021723;23;19918;-89
2022/01/18 19:50:06;;;;;;;;;;;5.00;99.90;;;;;;6039764;23;20428;-89
2022/01/18 19:52:52;;;;;;;;;;;5.00;99.90;;;;;;6041780;23;19919;-90
2022/01/18 19:55:21;;;;;;;;;;;5.00;99.90;;;;;;6054131;23;20395;-89
2022/01/18 19:57:46;;;;;;;;;;;5.00;99.90;;;;;;6126973;23;19927;-88
2022/01/18 20:00:53;;;;;;;;;;;5.00;99.90;;;;;;6117360;23;19908;-89
2022/01/18 20:07:13;;;;;;;;;;;5.00;99.90;;;;;;6025520;23;24491;-89
2022/01/18 20:09:39;;;;;;;;;;;5.00;99.90;;;;;;6109135;23;20354;-88
2022/01/18 20:12:05;;;;;;;;;;;5.00;99.90;;;;;;6104735;23;19919;-90
2022/01/18 20:14:31;;;;;;;;;;;5.00;99.90;;;;;;6139873;23;20126;-90
2022/01/18 20:17:06;;;;;;;;;;;5.00;99.90;;;;;;6138924;23;20257;-90
2022/01/18 20:19:35;;;;;;;;;;;5.00;99.90;;;;;;6144225;23;19916;-91
2022/01/18 20:22:03;;;;;;;;;;;5.00;99.90;;;;;;6140790;23;20348;-91
2022/01/18 20:24:32;;;;;;;;;;;5.00;99.90;;;;;;6142056;23;20043;-90
2022/01/18 20:26:59;;;;;;;;;;;5.10;99.90;;;;;;6140511;23;20226;-90
2022/01/18 20:29:28;;;;;;;;;;;5.10;99.90;;;;;;6129259;23;19919;-90
2022/01/18 20:31:53;;;;;;;;;;;5.10;99.90;;;;;;6132135;23;19968;-92
2022/01/18 20:34:19;;;;;;;;;;;5.10;99.90;;;;;;6143207;23;19944;-92
2022/01/18 20:36:45;;;;;;;;;;;5.10;99.90;;;;;;6135808;23;19932;-92
2022/01/18 20:39:13;;;;;;;;;;;5.10;99.90;;;;;;6142508;23;19916;-92
2022/01/18 20:44:27;;;;;;;;;;;5.20;99.90;;;;;;6163496;23;19935;-94
2022/01/18 20:46:55;;;;;;;;;;;5.20;99.90;;;;;;6135016;23;19924;-94
2022/01/18 20:49:26;;;;;;;;;;;5.30;99.90;;;;;;6132307;23;19912;-96
2022/01/18 20:51:54;;;;;;;;;;;5.30;99.90;;;;;;6145124;23;19916;-95
2022/01/18 20:54:19;;;;;;;;;;;5.30;99.90;;;;;;6134033;23;19924;-93
2022/01/18 20:56:51;;;;;;;;;;;5.30;99.90;;;;;;6135826;23;19916;-92
2022/01/18 20:59:21;;;;;;;;;;;5.30;99.90;;;;;;6145948;23;20329;-93
2022/01/18 21:01:48;;;;;;;;;;;5.30;99.90;;;;;;6134597;23;19949;-91
2022/01/18 21:04:14;;;;;;;;;;;5.30;99.90;;;;;;6146082;23;20214;-92
2022/01/18 21:06:39;;;;;;;;;;;5.30;99.90;;;;;;6144078;23;19909;-92
2022/01/18 21:09:06;;;;;;;;;;;5.40;99.90;;;;;;6170174;23;19920;-93
2022/01/18 21:11:32;;;;;;;;;;;5.40;99.90;;;;;;6146923;23;19958;-92
2022/01/18 21:14:10;;;;;;;;;;;5.40;99.90;;;;;;6146236;23;19912;-91
2022/01/18 21:16:36;;;;;;;;;;;5.40;99.90;;;;;;6138877;23;19917;-93
2022/01/18 21:19:01;;;;;;;;;;;5.40;99.90;;;;;;6136041;23;20050;-93
2022/01/18 21:21:29;;;;;;;;;;;5.40;99.90;;;;;;6122051;23;19913;-93
2022/01/18 21:23:58;;;;;;;;;;;5.40;99.90;;;;;;6142856;23;19915;-93
2022/01/18 21:26:29;;;;;;;;;;;5.40;99.90;;;;;;6143406;23;19991;-91
2022/01/18 21:28:54;;;;;;;;;;;5.50;99.90;;;;;;6141712;23;20376;-94
2022/01/18 21:31:20;;;;;;;;;;;5.50;99.90;;;;;;6144064;23;20078;-92
2022/01/18 21:33:49;;;;;;;;;;;5.40;99.90;;;;;;6151466;23;19943;-92
2022/01/18 21:36:15;;;;;;;;;;;5.40;99.90;;;;;;6142994;23;19909;-92
2022/01/18 21:38:44;;;;;;;;;;;5.40;99.90;;;;;;6143272;23;19916;-92
2022/01/18 21:41:15;;;;;;;;;;;5.40;99.90;;;;;;6142510;23;19935;-91
2022/01/18 21:43:43;;;;;;;;;;;5.40;99.90;;;;;;6142085;23;20506;-91
2022/01/18 21:46:09;;;;;;;;;;;5.40;99.90;;;;;;6142318;23;19971;-92
2022/01/18 21:48:35;;;;;;;;;;;5.40;99.90;;;;;;6144465;23;19913;-93
2022/01/18 21:51:01;;;;;;;;;;;5.40;99.90;;;;;;6133610;23;19908;-93
2022/01/18 21:53:29;;;;;;;;;;;5.50;99.90;;;;;;6142378;23;19917;-93
2022/01/18 21:55:59;;;;;;;;;;;5.50;99.90;;;;;;6141753;23;19913;-93
2022/01/18 21:58:25;;;;;;;;;;;5.50;99.90;;;;;;6142722;23;20369;-93
2022/01/18 22:00:50;;;;;;;;;;;5.50;99.90;;;;;;6132183;23;19947;-92
2022/01/18 22:03:16;;;;;;;;;;;5.50;99.90;;;;;;6143462;23;19940;-92
2022/01/18 22:05:48;;;;;;;;;;;5.50;99.90;;;;;;6130805;23;19912;-92
2022/01/18 22:08:13;;;;;;;;;;;5.50;99.90;;;;;;6130071;23;19932;-92
2022/01/18 22:10:39;;;;;;;;;;;5.50;99.90;;;;;;6140867;23;20411;-91
2022/01/18 22:13:05;;;;;;;;;;;5.50;99.90;;;;;;6132195;23;19916;-91
2022/01/18 22:15:30;;;;;;;;;;;5.50;99.90;;;;;;6141673;23;19909;-92
2022/01/18 22:17:56;;;;;;;;;;;5.50;99.90;;;;;;6143075;23;20410;-91
2022/01/18 22:20:23;;;;;;;;;;;5.50;99.90;;;;;;6141990;23;20342;-92
2022/01/18 22:22:48;;;;;;;;;;;5.50;99.90;;;;;;6143885;23;19909;-93
2022/01/18 22:25:14;;;;;;;;;;;5.50;99.90;;;;;;6122325;23;19919;-94
2022/01/18 22:27:40;;;;;;;;;;;5.50;99.90;;;;;;6146835;23;19920;-92
2022/01/18 22:30:17;;;;;;;;;;;5.50;99.90;;;;;;6137805;23;19916;-92
2022/01/18 22:32:48;;;;;;;;;;;5.60;99.90;;;;;;6125516;23;19912;-92
2022/01/18 22:35:14;;;;;;;;;;;5.50;99.90;;;;;;6130060;23;19938;-91
2022/01/18 22:37:41;;;;;;;;;;;5.60;99.90;;;;;;6137783;23;19991;-92
2022/01/18 22:40:16;;;;;;;;;;;5.60;99.90;;;;;;6151137;23;19917;-93
2022/01/18 22:42:46;;;;;;;;;;;5.60;99.90;;;;;;6133506;23;19947;-92
2022/01/18 22:45:12;;;;;;;;;;;5.60;99.90;;;;;;6138512;23;19916;-92
2022/01/18 22:47:38;;;;;;;;;;;5.60;99.90;;;;;;6144882;23;19909;-92
2022/01/18 22:50:05;;;;;;;;;;;5.60;99.90;;;;;;6145872;23;19912;-92
2022/01/18 22:52:33;;;;;;;;;;;5.50;99.90;;;;;;6145562;23;19915;-93
2022/01/18 22:54:59;;;;;;;;;;;5.60;99.90;;;;;;6148846;23;19909;-92
2022/01/18 22:57:28;;;;;;;;;;;5.60;99.90;;;;;;6146960;23;19912;-93
2022/01/18 22:59:55;;;;;;;;;;;5.60;99.90;;;;;;6144847;23;19989;-93
2022/01/18 23:02:21;;;;;;;;;;;5.60;99.90;;;;;;6148474;23;19913;-93
2022/01/18 23:04:48;;;;;;;;;;;5.60;99.90;;;;;;6136747;23;19909;-92
2022/01/18 23:07:14;;;;;;;;;;;5.60;99.90;;;;;;6171918;23;19909;-92
2022/01/18 23:09:39;;;;;;;;;;;5.60;99.90;;;;;;6124827;23;20412;-92
2022/01/18 23:12:05;;;;;;;;;;;5.50;99.90;;;;;;6136434;23;19918;-93
2022/01/18 23:14:31;;;;;;;;;;;5.60;99.90;;;;;;6145728;23;20034;-93
2022/01/18 23:16:59;;;;;;;;;;;5.60;99.90;;;;;;6144724;23;19920;-92
2022/01/18 23:19:29;;;;;;;;;;;5.60;99.90;;;;;;6133420;23;19928;-94
2022/01/18 23:21:55;;;;;;;;;;;5.50;99.90;;;;;;6131071;23;20031;-93
2022/01/18 23:24:20;;;;;;;;;;;5.50;99.90;;;;;;6142235;23;19912;-93
2022/01/18 23:26:49;;;;;;;;;;;5.50;99.90;;;;;;6137771;23;19915;-93
2022/01/18 23:29:14;;;;;;;;;;;5.50;99.90;;;;;;6145526;23;19940;-92
2022/01/18 23:31:40;;;;;;;;;;;5.40;99.90;;;;;;6146756;23;20317;-94
2022/01/18 23:34:05;;;;;;;;;;;5.50;99.90;;;;;;6145326;23;19913;-92
2022/01/18 23:36:33;;;;;;;;;;;5.40;99.90;;;;;;6157436;23;19936;-90
2022/01/18 23:39:04;;;;;;;;;;;5.40;99.90;;;;;;6143237;23;19919;-92
2022/01/18 23:41:34;;;;;;;;;;;5.40;99.90;;;;;;6142620;23;20321;-93
2022/01/18 23:44:10;;;;;;;;;;;5.40;99.90;;;;;;6142565;23;19920;-92
2022/01/18 23:46:37;;;;;;;;;;;5.40;99.90;;;;;;6151739;23;20325;-91
2022/01/18 23:49:03;;;;;;;;;;;5.30;99.90;;;;;;6133569;23;19915;-94
2022/01/18 23:51:29;;;;;;;;;;;5.30;99.90;;;;;;6142462;23;20322;-94
2022/01/18 23:53:56;;;;;;;;;;;5.30;99.90;;;;;;6142031;23;19916;-93
2022/01/18 23:56:21;;;;;;;;;;;5.40;99.90;;;;;;6142130;23;19912;-94
2022/01/18 23:58:51;;;;;;;;;;;5.30;99.90;;;;;;6141430;23;20227;-92
